Lumberport, West Virginia
Current Conditions -  °F | °C
As of 7:53 AM on Saturday 01 Nov 2014 (Local Time) from KCKB Reporting Station
Overcast Overcast  
Wind Chill: 36°   Ceiling: 1200
Heat Index: 41°   Visibility: 7mi
Dew Point: 40°   Wind: 8mph
Humidity: 96%   Direction: 10°N
Pressure: 29.92"   Gusts: NA
Location:  39.37°N, 80.35°W
Report Text: KCKB 011153Z AUTO 01007KT 7SM FEW009 BKN012 OVC021 05/04 A2992 RMK AO2 RAE10 SLP132 P0000 60001 70001 T00500044 10050 20044 51015
Loading
Personal Weather Stations






























Interactive Weather Map
Tropical Storm Tracking
New forecast layout! Learn more

10-Day Weather Forecast

Advertisements
Track Severe Weather on mobile